createdAt,value
2018-12-29T00:00:32.743Z,68.60
2018-12-29T00:03:52.283Z,63.67
2018-12-29T00:07:47.024Z,62.23
2018-12-29T00:28:19.430Z,61.33
2018-12-29T00:35:01.903Z,63.77
2018-12-29T00:37:59.405Z,64.90
2018-12-29T00:41:10.781Z,66.77
2018-12-29T00:44:13.810Z,71.43
2018-12-29T00:46:44.533Z,67.97
2018-12-29T00:49:14.293Z,72.80
2018-12-29T00:58:53.334Z,71.20
2018-12-29T01:01:33.812Z,68.67
2018-12-29T01:04:57.373Z,64.70
2018-12-29T01:10:26.440Z,66.63
2018-12-29T01:12:53.950Z,68.30
2018-12-29T01:15:21.378Z,69.77
2018-12-29T01:17:48.875Z,57.20
2018-12-29T01:20:16.324Z,68.23
2018-12-29T01:22:43.810Z,59.07
2018-12-29T01:25:11.236Z,71.33
2018-12-29T01:27:38.733Z,60.10
2018-12-29T01:30:06.655Z,61.13
2018-12-29T01:32:34.205Z,60.50
2018-12-29T01:35:01.656Z,63.20
2018-12-29T01:37:29.153Z,60.67
2018-12-29T01:39:56.585Z,58.33
2018-12-29T01:42:24.141Z,58.40
2018-12-29T01:44:51.553Z,58.47
2018-12-29T01:47:19.112Z,64.77
2018-12-29T01:49:46.615Z,66.37
2018-12-29T01:52:14.110Z,65.43
2018-12-29T01:54:41.585Z,65.87
2018-12-29T01:57:09.090Z,68.07
2018-12-29T01:59:36.505Z,68.07
2018-12-29T02:02:04.152Z,81.20
2018-12-29T02:04:31.686Z,70.20
2018-12-29T02:06:59.586Z,73.53
2018-12-29T02:09:27.046Z,73.80
2018-12-29T02:11:54.460Z,75.83
2018-12-29T02:14:21.950Z,69.73
2018-12-29T02:16:49.376Z,70.03
2018-12-29T02:19:16.851Z,74.73
2018-12-29T02:21:44.336Z,77.43
2018-12-29T02:24:11.811Z,77.27
2018-12-29T02:26:39.301Z,71.90
2018-12-29T02:29:06.775Z,79.97
2018-12-29T02:31:34.261Z,66.60
2018-12-29T02:34:01.770Z,63.97
2018-12-29T02:36:29.186Z,71.50
2018-12-29T02:38:56.650Z,72.00
2018-12-29T02:41:24.055Z,68.13
2018-12-29T02:43:51.530Z,67.43
2018-12-29T02:46:19.010Z,70.20
2018-12-29T02:48:46.495Z,66.23
2018-12-29T02:51:13.923Z,64.53
2018-12-29T02:53:41.400Z,60.40
2018-12-29T02:56:08.819Z,64.13
2018-12-29T02:58:36.351Z,64.07
2018-12-29T03:01:03.750Z,59.37
2018-12-29T03:03:31.315Z,59.53
2018-12-29T03:05:58.909Z,55.80
2018-12-29T03:08:26.505Z,55.73
2018-12-29T03:10:53.930Z,52.13
2018-12-29T03:13:23.212Z,48.70
2018-12-29T03:15:50.687Z,48.53
2018-12-29T03:18:18.182Z,44.77
2018-12-29T03:20:45.751Z,47.60
2018-12-29T03:23:13.295Z,46.13
2018-12-29T03:25:40.687Z,43.80
2018-12-29T03:28:08.291Z,54.60
2018-12-29T03:30:35.733Z,50.87
2018-12-29T03:33:04.128Z,38.63
2018-12-29T03:35:31.595Z,45.33
2018-12-29T03:37:59.039Z,49.90
2018-12-29T03:40:26.774Z,50.60
2018-12-29T03:42:54.206Z,46.40
2018-12-29T03:45:21.829Z,47.47
2018-12-29T03:47:49.410Z,49.47
2018-12-29T03:50:16.876Z,44.77
2018-12-29T03:52:44.418Z,50.33
2018-12-29T03:55:12.360Z,49.47
2018-12-29T03:57:39.931Z,51.73
2018-12-29T04:00:07.447Z,46.33
2018-12-29T04:02:34.847Z,45.03
2018-12-29T04:05:02.317Z,43.33
2018-12-29T04:07:29.820Z,40.30
2018-12-29T04:09:57.360Z,40.50
2018-12-29T04:12:26.699Z,42.17
2018-12-29T04:14:54.276Z,43.70
2018-12-29T04:17:21.681Z,50.57
2018-12-29T04:19:49.339Z,48.57
2018-12-29T04:22:16.747Z,49.57
2018-12-29T04:24:44.227Z,47.03
2018-12-29T04:27:11.674Z,50.47
2018-12-29T04:29:39.165Z,50.33
2018-12-29T04:32:06.610Z,52.00
2018-12-29T04:34:34.165Z,50.07
2018-12-29T04:37:01.637Z,52.60
2018-12-29T04:39:29.149Z,50.50
2018-12-29T04:41:56.609Z,46.83
2018-12-29T04:44:24.250Z,47.17
2018-12-29T04:46:51.780Z,53.30
2018-12-29T04:49:19.274Z,49.97
2018-12-29T04:51:46.739Z,50.63
2018-12-29T04:54:14.385Z,48.80
2018-12-29T04:56:41.915Z,48.13
2018-12-29T04:59:09.398Z,44.90
2018-12-29T05:01:36.825Z,42.73
2018-12-29T05:04:04.398Z,46.30
2018-12-29T05:06:31.910Z,42.97
2018-12-29T05:08:59.435Z,43.27
2018-12-29T05:11:26.905Z,46.20
2018-12-29T05:13:55.515Z,47.03
2018-12-29T05:16:23.050Z,49.07
2018-12-29T05:18:50.470Z,51.20
2018-12-29T05:21:17.936Z,49.07
2018-12-29T05:23:45.395Z,59.00
2018-12-29T05:26:12.859Z,51.73
2018-12-29T05:28:40.350Z,51.00
2018-12-29T05:31:07.802Z,54.73
2018-12-29T05:33:35.280Z,56.83
2018-12-29T05:36:02.710Z,63.93
2018-12-29T05:38:30.119Z,60.97
2018-12-29T05:40:57.740Z,57.77
2018-12-29T05:43:25.145Z,58.67
2018-12-29T05:45:52.683Z,59.93
2018-12-29T05:48:20.126Z,53.43
2018-12-29T05:50:47.685Z,56.77
2018-12-29T05:53:15.609Z,53.17
2018-12-29T05:55:43.264Z,51.50
2018-12-29T05:58:10.790Z,50.73
2018-12-29T06:00:38.392Z,51.70
2018-12-29T06:03:05.856Z,46.70
2018-12-29T06:05:33.316Z,48.93
2018-12-29T06:08:00.934Z,50.97
2018-12-29T06:10:28.431Z,55.77
2018-12-29T06:12:56.050Z,53.13
2018-12-29T06:15:23.613Z,51.03
2018-12-29T06:17:51.050Z,57.90
2018-12-29T06:20:18.595Z,54.77
2018-12-29T06:22:46.000Z,54.20
2018-12-29T06:25:13.519Z,55.83
2018-12-29T06:27:42.990Z,57.07
2018-12-29T06:30:10.435Z,48.90
2018-12-29T06:32:37.950Z,50.60
2018-12-29T06:35:05.490Z,47.30
2018-12-29T06:37:41.055Z,42.60
2018-12-29T06:40:08.460Z,39.43
2018-12-29T06:42:36.100Z,42.13
2018-12-29T06:45:03.675Z,30.93
2018-12-29T06:47:31.204Z,35.83
2018-12-29T06:49:58.651Z,33.17
2018-12-29T06:52:26.110Z,39.07
2018-12-29T06:54:53.557Z,36.43
2018-12-29T06:57:21.033Z,39.70
2018-12-29T06:59:48.620Z,37.33
2018-12-29T07:02:16.365Z,45.67
2018-12-29T07:04:43.825Z,45.33
2018-12-29T07:07:11.336Z,48.17
2018-12-29T07:09:38.750Z,46.47
2018-12-29T07:12:06.275Z,51.73
2018-12-29T07:14:33.715Z,49.37
2018-12-29T07:17:01.252Z,52.40
2018-12-29T07:19:28.680Z,54.37
2018-12-29T07:21:56.140Z,58.40
2018-12-29T07:24:23.580Z,55.93
2018-12-29T07:26:51.050Z,57.50
2018-12-29T07:29:18.475Z,53.33
2018-12-29T07:31:46.047Z,53.73
2018-12-29T07:34:13.492Z,56.93
2018-12-29T07:36:40.930Z,59.03
2018-12-29T07:39:08.411Z,55.70
2018-12-29T07:41:35.825Z,63.17
2018-12-29T07:44:03.329Z,37.07
2018-12-29T07:46:30.865Z,64.23
2018-12-29T07:48:58.382Z,59.87
2018-12-29T07:51:25.850Z,61.20
2018-12-29T07:53:53.296Z,61.87
2018-12-29T07:56:20.831Z,67.40
2018-12-29T07:58:48.405Z,64.33
2018-12-29T08:01:15.829Z,70.30
2018-12-29T08:03:43.363Z,65.80
2018-12-29T08:06:10.790Z,65.93
2018-12-29T08:08:38.300Z,61.83
2018-12-29T08:11:05.709Z,68.97
2018-12-29T08:13:33.194Z,59.43
2018-12-29T08:16:00.599Z,65.20
2018-12-29T08:18:28.059Z,73.17
2018-12-29T08:20:55.499Z,76.60
2018-12-29T08:23:22.959Z,71.23
2018-12-29T08:25:50.357Z,65.57
2018-12-29T08:28:18.310Z,76.47
2018-12-29T08:30:46.053Z,65.80
2018-12-29T08:33:13.544Z,73.37
2018-12-29T08:35:41.037Z,70.67
2018-12-29T08:38:08.490Z,64.47
2018-12-29T08:40:36.042Z,59.03
2018-12-29T08:43:03.689Z,63.17
2018-12-29T08:45:31.190Z,60.97
2018-12-29T08:47:58.692Z,66.00
2018-12-29T08:50:26.119Z,58.83
2018-12-29T08:52:53.619Z,59.40
2018-12-29T08:55:21.054Z,61.90
2018-12-29T08:57:48.530Z,60.27
2018-12-29T09:00:16.013Z,50.77
2018-12-29T09:02:43.504Z,70.90
2018-12-29T09:05:11.303Z,67.47
2018-12-29T09:07:38.765Z,69.27
2018-12-29T09:10:06.185Z,75.30
2018-12-29T09:12:33.709Z,83.20
2018-12-29T09:15:01.119Z,60.70
2018-12-29T09:17:28.730Z,80.23
2018-12-29T09:19:56.179Z,76.10
2018-12-29T09:22:23.655Z,79.17
2018-12-29T09:24:51.165Z,75.27
2018-12-29T09:27:18.684Z,76.50
2018-12-29T09:29:46.235Z,73.77
2018-12-29T09:32:13.679Z,54.97
2018-12-29T09:34:41.100Z,81.17
2018-12-29T09:37:08.625Z,86.60
2018-12-29T09:39:36.520Z,75.70
2018-12-29T09:42:04.184Z,90.90
2018-12-29T09:44:31.754Z,92.30
2018-12-29T09:46:59.225Z,90.13
2018-12-29T09:49:26.720Z,86.93
2018-12-29T09:51:54.180Z,90.83
2018-12-29T09:54:22.355Z,91.60
2018-12-29T09:56:49.774Z,98.50
2018-12-29T09:59:17.239Z,96.77
2018-12-29T10:01:44.819Z,96.33
2018-12-29T10:04:12.294Z,102.00
2018-12-29T10:06:39.804Z,97.93
2018-12-29T10:09:07.295Z,95.93
2018-12-29T10:11:34.784Z,103.00
2018-12-29T10:14:02.230Z,111.73
2018-12-29T10:16:29.649Z,93.60
2018-12-29T10:18:57.130Z,94.13
2018-12-29T10:21:24.531Z,108.03
2018-12-29T10:23:51.999Z,113.33
2018-12-29T10:26:20.249Z,115.53
2018-12-29T10:28:47.743Z,113.97
2018-12-29T10:41:15.199Z,125.50
2018-12-29T10:43:42.734Z,131.17
2018-12-29T10:46:10.409Z,131.53
2018-12-29T10:48:37.854Z,131.33
2018-12-29T10:51:05.288Z,143.03
2018-12-29T10:53:32.790Z,139.60
2018-12-29T10:56:00.556Z,140.30
2018-12-29T10:58:28.038Z,130.50
2018-12-29T11:00:55.465Z,125.40
2018-12-29T11:03:22.915Z,130.80
2018-12-29T11:05:50.733Z,119.83
2018-12-29T11:08:18.207Z,116.20
2018-12-29T11:10:45.759Z,108.80
2018-12-29T11:13:13.232Z,121.80
2018-12-29T11:19:55.234Z,107.97
2018-12-29T12:48:14.477Z,63.67
2018-12-29T12:50:42.018Z,58.90
2018-12-29T12:53:09.508Z,59.40
2018-12-29T12:55:37.372Z,55.60
2018-12-29T12:58:05.201Z,65.43
2018-12-29T13:00:33.149Z,61.83
2018-12-29T13:03:00.881Z,56.83
2018-12-29T13:05:28.414Z,55.20
2018-12-29T13:07:55.872Z,57.33
2018-12-29T13:10:23.349Z,54.17
2018-12-29T13:12:53.387Z,41.87
2018-12-29T13:15:21.839Z,55.37
2018-12-29T13:17:49.273Z,31.50
2018-12-29T13:20:16.839Z,52.90
2018-12-29T13:22:44.348Z,46.17
2018-12-29T13:25:11.854Z,47.40
2018-12-29T13:27:39.298Z,51.20
2018-12-29T13:30:07.001Z,46.23
2018-12-29T13:32:34.394Z,42.57
2018-12-29T13:35:02.210Z,43.60
2018-12-29T13:37:29.694Z,42.87
2018-12-29T13:39:57.163Z,40.57
2018-12-29T13:42:25.079Z,42.23
2018-12-29T13:44:52.538Z,41.23
2018-12-29T13:47:20.073Z,39.60
2018-12-29T13:49:47.508Z,41.20
2018-12-29T13:52:15.107Z,40.07
2018-12-29T13:54:43.183Z,40.03
2018-12-29T13:57:10.753Z,39.83
2018-12-29T13:59:38.224Z,44.87
2018-12-29T14:02:06.049Z,43.27
2018-12-29T14:04:33.479Z,43.70
2018-12-29T14:07:00.983Z,40.53
2018-12-29T14:09:28.478Z,36.00
2018-12-29T14:11:55.989Z,42.77
2018-12-29T14:14:23.861Z,37.97
2018-12-29T14:16:51.364Z,41.87
2018-12-29T14:19:18.793Z,42.23
2018-12-29T14:21:46.253Z,39.00
2018-12-29T14:24:13.733Z,36.00
2018-12-29T14:26:41.227Z,41.80
2018-12-29T14:29:08.646Z,39.47
2018-12-29T14:31:36.179Z,36.73
2018-12-29T14:34:03.622Z,45.80
2018-12-29T14:36:31.148Z,39.37
2018-12-29T14:38:58.594Z,32.33
2018-12-29T14:41:42.066Z,39.87
2018-12-29T14:44:09.553Z,38.83
2018-12-29T14:46:37.059Z,37.90
2018-12-29T14:49:04.479Z,36.87
2018-12-29T14:51:32.147Z,37.60
2018-12-29T14:53:59.693Z,29.13
2018-12-29T14:56:27.179Z,30.37
2018-12-29T14:58:54.654Z,40.07
2018-12-29T15:01:22.173Z,40.07
2018-12-29T15:03:50.024Z,38.87
2018-12-29T15:06:17.453Z,40.20
2018-12-29T15:08:44.979Z,39.25
2018-12-29T15:11:12.453Z,39.13
2018-12-29T15:13:39.994Z,33.43
2018-12-29T15:16:07.431Z,34.53
2018-12-29T15:18:35.029Z,33.30
2018-12-29T15:21:02.893Z,40.93
2018-12-29T15:23:30.439Z,40.30
2018-12-29T15:25:58.339Z,41.17
2018-12-29T15:28:25.957Z,38.50
2018-12-29T15:30:53.489Z,39.80
2018-12-29T15:33:21.011Z,42.13
2018-12-29T15:35:48.863Z,45.17
2018-12-29T15:38:16.447Z,32.23
2018-12-29T15:40:43.899Z,26.57
2018-12-29T15:43:11.520Z,35.27
2018-12-29T15:45:39.743Z,37.77
2018-12-29T15:48:07.655Z,28.03
2018-12-29T15:50:35.528Z,37.90
2018-12-29T15:53:03.788Z,34.27
2018-12-29T15:55:31.263Z,31.73
2018-12-29T15:57:59.145Z,39.70
2018-12-29T16:00:26.763Z,36.90
2018-12-29T16:02:54.388Z,34.60
2018-12-29T16:05:21.848Z,28.90
2018-12-29T16:07:49.766Z,31.93
2018-12-29T16:10:17.223Z,36.23
2018-12-29T16:12:44.734Z,27.63
2018-12-29T16:15:12.626Z,32.97
2018-12-29T16:17:40.339Z,25.13
2018-12-29T16:20:08.093Z,23.90
2018-12-29T16:22:35.653Z,35.50
2018-12-29T16:25:03.319Z,37.63
2018-12-29T16:27:31.315Z,32.33
2018-12-29T16:29:58.853Z,31.83
2018-12-29T16:32:26.563Z,29.37
2018-12-29T16:34:54.128Z,31.17
2018-12-29T16:37:21.684Z,27.97
2018-12-29T16:39:49.373Z,28.17
2018-12-29T16:42:16.773Z,22.83
2018-12-29T16:44:44.563Z,26.83
2018-12-29T16:47:29.494Z,23.00
2018-12-29T16:49:57.038Z,18.63
2018-12-29T16:52:24.858Z,21.70
2018-12-29T16:54:53.339Z,20.10
2018-12-29T16:57:20.803Z,21.53
2018-12-29T16:59:48.368Z,17.67
2018-12-29T17:02:16.013Z,21.67
2018-12-29T17:04:43.523Z,21.20
2018-12-29T17:07:11.014Z,19.67
2018-12-29T17:09:38.518Z,21.23
2018-12-29T17:12:06.032Z,19.60
2018-12-29T17:14:33.644Z,20.13
2018-12-29T17:17:01.234Z,23.60
2018-12-29T17:19:29.159Z,23.20
2018-12-29T17:21:56.709Z,23.10
2018-12-29T17:24:24.264Z,24.47
2018-12-29T17:26:51.723Z,23.30
2018-12-29T17:29:19.184Z,25.20
2018-12-29T17:31:46.654Z,28.23
2018-12-29T17:34:14.159Z,27.63
2018-12-29T17:36:42.288Z,26.50
2018-12-29T17:39:09.904Z,28.77
2018-12-29T17:41:37.594Z,26.53
2018-12-29T17:44:05.270Z,29.70
2018-12-29T17:46:33.274Z,29.23
2018-12-29T17:49:01.063Z,32.63
2018-12-29T17:51:28.660Z,34.03
2018-12-29T17:53:56.194Z,29.07
2018-12-29T17:56:23.978Z,34.20
2018-12-29T17:58:51.479Z,30.07
2018-12-29T18:01:19.055Z,30.53
2018-12-29T18:03:46.904Z,28.60
2018-12-29T18:06:14.719Z,34.80
2018-12-29T18:08:42.544Z,33.97
2018-12-29T18:11:10.312Z,33.20
2018-12-29T18:13:37.839Z,27.03
2018-12-29T18:16:05.345Z,33.13
2018-12-29T18:18:33.177Z,31.80
2018-12-29T18:21:00.874Z,36.23
2018-12-29T18:23:28.794Z,34.13
2018-12-29T18:25:56.434Z,34.37
2018-12-29T18:28:24.394Z,41.87
2018-12-29T18:30:52.199Z,37.37
2018-12-29T18:33:20.081Z,36.40
2018-12-29T18:35:47.969Z,38.57
2018-12-29T18:38:15.773Z,36.43
2018-12-29T18:40:43.493Z,34.97
2018-12-29T18:43:11.239Z,37.77
2018-12-29T18:45:39.288Z,34.80
2018-12-29T18:48:07.103Z,36.67
2018-12-29T18:50:34.754Z,34.53
2018-12-29T18:53:02.673Z,39.17
2018-12-29T18:55:30.619Z,34.93
2018-12-29T18:57:58.461Z,32.53
2018-12-29T19:00:26.803Z,41.20
2018-12-29T19:02:54.625Z,35.80
2018-12-29T19:05:22.418Z,39.07
2018-12-29T19:07:50.193Z,44.40
2018-12-29T19:10:18.038Z,37.27
2018-12-29T19:12:45.826Z,37.10
2018-12-29T19:15:13.853Z,38.20
2018-12-29T19:17:41.817Z,41.83
2018-12-29T19:20:09.977Z,43.80
2018-12-29T19:22:37.897Z,40.60
2018-12-29T19:25:05.737Z,42.00
2018-12-29T19:27:33.437Z,40.77
2018-12-29T19:30:02.755Z,45.73
2018-12-29T19:32:30.803Z,32.77
2018-12-29T19:34:59.115Z,48.03
2018-12-29T19:37:26.855Z,39.33
2018-12-29T19:39:55.076Z,45.10
2018-12-29T20:05:04.466Z,46.63
2018-12-29T20:31:01.293Z,28.60
2018-12-29T20:33:29.427Z,28.17
2018-12-29T20:36:00.502Z,18.13
2018-12-29T20:38:28.647Z,21.60
2018-12-29T20:41:00.957Z,21.47
2018-12-29T20:43:29.139Z,15.93
2018-12-29T20:45:57.218Z,16.57
2018-12-29T20:48:28.767Z,20.17
2018-12-29T20:51:05.285Z,13.50
2018-12-29T20:53:36.566Z,16.77
2018-12-29T20:56:26.787Z,14.67
2018-12-29T20:59:56.532Z,14.10
2018-12-29T21:03:05.879Z,14.33
2018-12-29T21:05:33.982Z,17.33
2018-12-29T21:20:43.932Z,13.57
2018-12-29T23:32:16.315Z,11.77
2018-12-29T23:35:26.326Z,12.47
